createdAt,value
2019-05-29T00:00:35.283Z,9.90
2019-05-29T00:03:04.176Z,9.90
2019-05-29T00:05:32.951Z,9.90
2019-05-29T00:08:01.525Z,9.80
2019-05-29T00:10:30.345Z,9.90
2019-05-29T00:12:59.224Z,9.90
2019-05-29T00:15:28.025Z,9.90
2019-05-29T00:17:56.869Z,9.90
2019-05-29T00:20:25.729Z,9.90
2019-05-29T00:22:54.740Z,9.90
2019-05-29T00:25:23.614Z,9.80
2019-05-29T00:27:52.366Z,9.80
2019-05-29T00:30:21.291Z,9.80
2019-05-29T00:32:49.836Z,9.80
2019-05-29T00:35:18.602Z,9.80
2019-05-29T00:37:47.098Z,9.80
2019-05-29T00:40:17.124Z,9.80
2019-05-29T00:42:45.970Z,9.80
2019-05-29T00:45:15.611Z,9.80
2019-05-29T00:47:46.459Z,9.70
2019-05-29T00:50:16.144Z,9.70
2019-05-29T00:52:45.060Z,9.70
2019-05-29T00:55:14.676Z,9.80
2019-05-29T00:57:43.512Z,9.70
2019-05-29T01:00:13.280Z,9.70
2019-05-29T01:02:41.843Z,9.70
2019-05-29T01:05:10.391Z,9.70
2019-05-29T01:07:39.179Z,9.70
2019-05-29T01:10:08.733Z,9.70
2019-05-29T01:12:37.617Z,9.60
2019-05-29T01:15:08.332Z,9.60
2019-05-29T01:17:37.110Z,9.50
2019-05-29T01:20:09.206Z,9.50
2019-05-29T01:22:37.972Z,9.40
2019-05-29T01:25:07.364Z,9.40
2019-05-29T01:27:36.230Z,9.40
2019-05-29T01:30:06.513Z,9.30
2019-05-29T01:32:35.396Z,9.30
2019-05-29T01:35:06.056Z,9.30
2019-05-29T01:37:34.897Z,9.20
2019-05-29T01:40:19.361Z,9.20
2019-05-29T01:42:36.011Z,9.30
2019-05-29T01:45:08.450Z,9.30
2019-05-29T01:47:37.282Z,9.40
2019-05-29T01:50:07.042Z,9.40
2019-05-29T01:52:35.937Z,9.40
2019-05-29T01:55:07.281Z,9.40
2019-05-29T01:57:36.083Z,9.40
2019-05-29T02:00:08.017Z,9.30
2019-05-29T02:02:36.903Z,9.30
2019-05-29T02:05:08.490Z,9.30
2019-05-29T02:07:37.310Z,9.20
2019-05-29T02:10:09.024Z,9.10
2019-05-29T02:12:37.542Z,9.20
2019-05-29T02:15:22.947Z,9.10
2019-05-29T02:17:40.219Z,9.10
2019-05-29T02:20:09.527Z,9.20
2019-05-29T02:22:38.346Z,9.20
2019-05-29T02:25:07.705Z,9.30
2019-05-29T02:27:36.644Z,9.30
2019-05-29T02:30:09.253Z,9.40
2019-05-29T02:32:38.111Z,9.40
2019-05-29T02:35:07.275Z,9.50
2019-05-29T02:37:36.134Z,9.60
2019-05-29T02:40:06.563Z,9.70
2019-05-29T02:42:35.367Z,9.80
2019-05-29T02:45:05.707Z,9.80
2019-05-29T02:47:34.499Z,10.00
2019-05-29T02:50:04.211Z,10.00
2019-05-29T02:52:32.703Z,10.00
2019-05-29T02:55:01.463Z,10.10
2019-05-29T02:57:31.019Z,10.10
2019-05-29T02:59:59.939Z,10.20
2019-05-29T03:02:30.160Z,10.20
2019-05-29T03:04:59.173Z,10.20
2019-05-29T03:07:28.516Z,10.30
2019-05-29T03:09:57.663Z,10.30
2019-05-29T03:12:27.055Z,10.30
2019-05-29T03:14:55.956Z,10.30
2019-05-29T03:17:25.689Z,10.30
2019-05-29T03:19:54.508Z,10.20
2019-05-29T03:22:24.104Z,10.20
2019-05-29T03:24:52.939Z,10.20
2019-05-29T03:27:21.678Z,10.20
2019-05-29T03:29:50.703Z,10.20
2019-05-29T03:32:19.512Z,10.20
2019-05-29T03:34:48.481Z,10.10
2019-05-29T03:37:17.405Z,10.20
2019-05-29T03:39:46.089Z,10.10
2019-05-29T03:42:14.851Z,10.10
2019-05-29T03:44:43.668Z,10.10
2019-05-29T03:47:12.151Z,10.10
2019-05-29T03:49:40.965Z,10.20
2019-05-29T03:52:09.742Z,10.20
2019-05-29T03:54:38.846Z,10.20
2019-05-29T03:57:07.818Z,10.20
2019-05-29T03:59:37.423Z,10.20
2019-05-29T04:02:06.049Z,10.20
2019-05-29T04:04:36.217Z,10.30
2019-05-29T04:07:05.124Z,10.30
2019-05-29T04:09:35.301Z,10.30
2019-05-29T04:12:04.350Z,10.40
2019-05-29T04:14:33.542Z,10.40
2019-05-29T04:17:03.051Z,10.50
2019-05-29T04:19:34.304Z,10.50
2019-05-29T04:22:05.925Z,10.50
2019-05-29T04:24:38.228Z,10.50
2019-05-29T04:27:09.894Z,10.60
2019-05-29T04:29:38.549Z,10.60
2019-05-29T04:32:08.262Z,10.60
2019-05-29T04:34:37.971Z,10.60
2019-05-29T04:37:07.711Z,10.60
2019-05-29T04:39:56.957Z,10.70
2019-05-29T04:42:25.812Z,10.80
2019-05-29T04:44:54.879Z,10.80
2019-05-29T04:50:56.631Z,11.00
2019-05-29T04:53:25.609Z,11.10
2019-05-29T04:56:30.511Z,11.10
2019-05-29T05:01:56.944Z,11.10
2019-05-29T05:04:31.069Z,11.10
2019-05-29T05:06:59.835Z,11.10
2019-05-29T05:09:29.225Z,11.00
2019-05-29T05:11:58.269Z,11.00
2019-05-29T05:14:27.250Z,11.00
2019-05-29T05:16:56.694Z,10.90
2019-05-29T05:19:29.702Z,10.90
2019-05-29T05:21:58.690Z,10.90
2019-05-29T05:24:27.669Z,10.80
2019-05-29T05:26:56.576Z,10.80
2019-05-29T05:29:25.411Z,10.80
2019-05-29T05:31:54.363Z,10.80
2019-05-29T05:34:23.427Z,10.80
2019-05-29T05:36:52.279Z,10.90
2019-05-29T05:39:21.075Z,10.90
2019-05-29T05:41:49.962Z,11.00
2019-05-29T05:44:18.869Z,11.10
2019-05-29T05:46:47.828Z,11.10
2019-05-29T05:49:16.396Z,11.20
2019-05-29T05:51:45.223Z,11.30
2019-05-29T05:54:13.812Z,11.40
2019-05-29T05:56:42.719Z,11.50
2019-05-29T05:59:11.538Z,11.50
2019-05-29T06:01:40.112Z,11.50
2019-05-29T06:04:08.845Z,11.50
2019-05-29T06:06:38.100Z,11.50
2019-05-29T06:09:08.206Z,11.50
2019-05-29T06:11:38.220Z,11.50
2019-05-29T06:14:07.073Z,11.50
2019-05-29T06:16:36.454Z,11.50
2019-05-29T06:19:05.257Z,11.50
2019-05-29T06:21:34.637Z,11.60
2019-05-29T06:24:03.205Z,11.70
2019-05-29T06:26:37.510Z,11.70
2019-05-29T06:29:05.039Z,11.80
2019-05-29T06:31:43.381Z,11.80
2019-05-29T06:34:12.285Z,11.80
2019-05-29T06:36:48.037Z,11.90
2019-05-29T06:39:15.220Z,11.90
2019-05-29T06:41:53.118Z,11.80
2019-05-29T06:44:22.015Z,11.90
2019-05-29T06:46:55.858Z,11.80
2019-05-29T06:49:25.192Z,11.90
2019-05-29T06:51:54.027Z,12.00
2019-05-29T06:54:22.875Z,12.00
2019-05-29T06:56:51.809Z,12.00
2019-05-29T06:59:20.689Z,12.00
2019-05-29T07:01:49.613Z,12.10
2019-05-29T07:04:18.420Z,12.10
2019-05-29T07:06:47.275Z,12.10
2019-05-29T07:09:16.195Z,12.10
2019-05-29T07:11:45.499Z,12.10
2019-05-29T07:14:14.304Z,12.10
2019-05-29T07:16:49.980Z,12.20
2019-05-29T07:19:47.207Z,12.40
2019-05-29T07:21:45.022Z,12.80
2019-05-29T07:24:13.842Z,13.40
2019-05-29T07:26:43.420Z,14.40
2019-05-29T07:29:12.514Z,16.00
2019-05-29T07:31:41.240Z,18.60
2019-05-29T07:34:09.654Z,19.80
2019-05-29T07:36:39.767Z,20.00
2019-05-29T07:39:08.899Z,19.20
2019-05-29T07:41:37.484Z,18.00
2019-05-29T07:44:06.221Z,17.20
2019-05-29T07:46:34.964Z,16.50
2019-05-29T07:49:03.449Z,16.00
2019-05-29T07:51:31.868Z,15.60
2019-05-29T07:54:00.571Z,15.20
2019-05-29T07:56:29.000Z,14.70
2019-05-29T07:59:03.145Z,14.50
2019-05-29T08:01:30.484Z,14.50
2019-05-29T08:03:58.004Z,14.70
2019-05-29T08:06:26.687Z,14.90
2019-05-29T08:08:55.401Z,15.00
2019-05-29T08:11:24.093Z,15.00
2019-05-29T08:13:52.786Z,15.00
2019-05-29T08:16:21.491Z,15.10
2019-05-29T08:18:52.939Z,15.20
2019-05-29T08:21:20.376Z,15.20
2019-05-29T08:23:49.145Z,15.20
2019-05-29T08:26:18.169Z,15.10
2019-05-29T08:28:46.865Z,15.10
2019-05-29T08:31:15.591Z,15.00
2019-05-29T08:33:44.847Z,15.00
2019-05-29T08:36:13.394Z,14.90
2019-05-29T08:38:42.934Z,14.70
2019-05-29T08:41:12.637Z,14.70
2019-05-29T08:43:42.485Z,14.80
2019-05-29T08:46:11.073Z,15.20
2019-05-29T08:48:39.759Z,15.60
2019-05-29T08:51:08.487Z,16.30
2019-05-29T08:53:37.222Z,17.20
2019-05-29T08:56:05.828Z,17.70
2019-05-29T08:58:37.195Z,18.40
2019-05-29T09:01:04.912Z,19.20
2019-05-29T09:03:33.594Z,19.70
2019-05-29T09:06:08.893Z,20.00
2019-05-29T09:08:32.749Z,20.30
2019-05-29T09:11:01.448Z,20.50
2019-05-29T09:13:30.152Z,20.80
2019-05-29T09:15:58.856Z,21.20
2019-05-29T09:18:27.544Z,21.30
2019-05-29T09:21:03.382Z,21.50
2019-05-29T09:23:26.196Z,21.40
2019-05-29T09:25:54.816Z,21.60
2019-05-29T09:28:23.832Z,21.90
2019-05-29T09:30:52.689Z,21.60
2019-05-29T09:33:22.001Z,21.00
2019-05-29T09:35:51.824Z,20.10
2019-05-29T09:38:20.928Z,19.30
2019-05-29T09:40:52.708Z,18.70
2019-05-29T09:43:26.344Z,18.50
2019-05-29T09:45:50.743Z,18.70
2019-05-29T09:48:23.354Z,19.10
2019-05-29T10:15:37.905Z,15.90
2019-05-29T10:18:13.241Z,15.50
2019-05-29T10:20:37.360Z,15.10
2019-05-29T10:23:06.343Z,14.90
2019-05-29T10:25:34.827Z,14.70
2019-05-29T10:28:05.980Z,14.60
2019-05-29T10:30:33.734Z,14.40
2019-05-29T10:33:02.545Z,14.40
2019-05-29T10:35:31.138Z,14.30
2019-05-29T10:38:00.761Z,14.40
2019-05-29T10:40:30.001Z,14.40
2019-05-29T10:43:03.796Z,14.50
2019-05-29T10:45:52.026Z,14.60
2019-05-29T10:48:21.851Z,14.80
2019-05-29T10:50:52.454Z,14.90
2019-05-29T10:53:20.991Z,15.10
2019-05-29T10:55:52.703Z,15.20
2019-05-29T10:58:28.942Z,15.30
2019-05-29T11:01:11.751Z,15.40
2019-05-29T11:03:45.533Z,15.40
2019-05-29T11:06:16.437Z,15.50
2019-05-29T11:08:54.115Z,15.70
2019-05-29T11:17:33.671Z,16.30
2019-05-29T11:20:03.305Z,16.40
2019-05-29T11:22:34.187Z,16.60
2019-05-29T11:25:21.635Z,16.60
2019-05-29T11:27:37.535Z,16.70
2019-05-29T11:30:08.797Z,16.90
2019-05-29T11:56:31.509Z,17.90
2019-05-29T11:59:00.193Z,18.50
2019-05-29T12:01:52.923Z,18.90
2019-05-29T12:04:35.127Z,19.50
2019-05-29T12:07:04.347Z,19.10
2019-05-29T12:09:43.867Z,18.90
2019-05-29T12:12:18.441Z,19.10
2019-05-29T12:15:00.624Z,18.80
2019-05-29T12:17:25.327Z,18.40
2019-05-29T12:20:24.213Z,17.90
2019-05-29T12:34:52.849Z,18.00
2019-05-29T12:37:10.929Z,18.30
2019-05-29T12:39:40.069Z,18.80
2019-05-29T12:42:08.591Z,19.20
2019-05-29T12:44:57.521Z,19.30
2019-05-29T12:47:16.233Z,19.60
2019-05-29T12:49:44.907Z,20.00
2019-05-29T12:52:13.398Z,20.20
2019-05-29T12:54:41.944Z,20.50
2019-05-29T12:57:10.648Z,20.50
2019-05-29T12:59:41.006Z,20.70
2019-05-29T13:02:09.772Z,20.80
2019-05-29T13:05:06.094Z,20.30
2019-05-29T13:14:28.327Z,18.80
2019-05-29T13:17:05.329Z,18.80
2019-05-29T13:19:45.213Z,18.80
2019-05-29T13:22:09.120Z,19.10
2019-05-29T13:25:12.643Z,19.20
2019-05-29T14:14:43.768Z,16.40
2019-05-29T14:17:29.677Z,16.30
2019-05-29T14:19:58.629Z,16.40
2019-05-29T14:22:27.469Z,16.50
2019-05-29T14:24:56.282Z,16.60
2019-05-29T14:27:24.965Z,16.70
2019-05-29T14:29:53.817Z,16.80
2019-05-29T14:32:28.159Z,17.00
2019-05-29T14:35:46.041Z,17.20
2019-05-29T14:38:15.280Z,17.60
2019-05-29T14:40:44.273Z,18.20
2019-05-29T14:43:15.447Z,18.70
2019-05-29T14:45:43.597Z,18.90
2019-05-29T14:48:13.796Z,18.70
2019-05-29T14:50:42.776Z,18.50
2019-05-29T14:53:13.315Z,18.10
2019-05-29T14:55:42.124Z,18.20
2019-05-29T14:58:11.900Z,18.10
2019-05-29T15:00:40.856Z,18.10
2019-05-29T15:03:09.566Z,18.40
2019-05-29T15:05:38.319Z,18.60
2019-05-29T15:08:08.024Z,19.00
2019-05-29T15:10:36.631Z,19.30
2019-05-29T15:13:06.572Z,19.60
2019-05-29T15:15:35.534Z,19.40
2019-05-29T15:18:04.895Z,18.90
2019-05-29T15:20:33.652Z,19.00
2019-05-29T15:23:02.123Z,19.20
2019-05-29T15:25:30.868Z,18.60
2019-05-29T15:27:59.563Z,18.10
2019-05-29T15:30:28.091Z,17.50
2019-05-29T15:32:56.652Z,17.40
2019-05-29T15:35:25.406Z,17.30
2019-05-29T15:37:54.138Z,17.40
2019-05-29T15:40:22.892Z,17.20
2019-05-29T15:42:51.575Z,17.40
2019-05-29T15:45:20.747Z,17.70
2019-05-29T15:47:49.513Z,17.70
2019-05-29T15:50:18.206Z,17.20
2019-05-29T15:52:46.971Z,17.00
2019-05-29T15:55:32.178Z,16.70
2019-05-29T15:57:46.303Z,16.20
2019-05-29T16:00:15.673Z,16.10
2019-05-29T16:02:48.335Z,16.20
2019-05-29T16:05:17.208Z,16.30
2019-05-29T16:07:45.804Z,16.70
2019-05-29T16:10:18.147Z,17.00
2019-05-29T16:12:45.211Z,17.00
2019-05-29T16:15:15.177Z,16.50
2019-05-29T16:17:44.352Z,16.30
2019-05-29T16:20:14.577Z,16.20
2019-05-29T16:22:43.126Z,15.90
2019-05-29T16:25:12.804Z,15.90
2019-05-29T16:27:41.628Z,15.90
2019-05-29T16:30:13.589Z,16.00
2019-05-29T16:32:42.447Z,16.20
2019-05-29T16:35:11.464Z,16.30
2019-05-29T16:41:50.934Z,16.40
2019-05-29T16:47:47.213Z,16.20
2019-05-29T16:50:33.470Z,16.00
2019-05-29T16:53:05.681Z,15.90
2019-05-29T16:55:58.810Z,15.80
2019-05-29T16:58:47.858Z,15.80
2019-05-29T17:01:46.871Z,15.70
2019-05-29T17:04:08.889Z,15.70
2019-05-29T17:06:34.792Z,15.60
2019-05-29T17:09:08.115Z,15.60
2019-05-29T17:11:50.329Z,15.60
2019-05-29T17:17:45.770Z,15.80
2019-05-29T17:20:18.721Z,15.90
2019-05-29T17:22:51.550Z,16.00
2019-05-29T17:25:20.735Z,16.00
2019-05-29T17:27:50.753Z,16.10
2019-05-29T17:30:25.579Z,16.10
2019-05-29T17:32:54.315Z,16.10
2019-05-29T17:35:23.229Z,15.90
2019-05-29T17:37:52.111Z,15.80
2019-05-29T17:40:21.445Z,15.70
2019-05-29T17:42:50.289Z,15.50
2019-05-29T17:45:27.440Z,15.60
2019-05-29T17:47:56.272Z,15.50
2019-05-29T17:50:26.679Z,15.30
2019-05-29T17:52:55.551Z,15.20
2019-05-29T17:55:25.336Z,15.00
2019-05-29T17:57:55.175Z,14.90
2019-05-29T18:00:24.728Z,14.80
2019-05-29T18:02:53.785Z,14.80
2019-05-29T18:05:24.577Z,14.70
2019-05-29T18:07:53.710Z,14.60
2019-05-29T18:10:35.139Z,14.60
2019-05-29T18:13:03.800Z,14.50
2019-05-29T18:15:33.363Z,14.50
2019-05-29T18:18:02.374Z,14.40
2019-05-29T18:20:32.315Z,14.40
2019-05-29T18:23:01.001Z,14.30
2019-05-29T18:25:49.294Z,14.30
2019-05-29T18:28:17.932Z,14.20
2019-05-29T18:30:46.932Z,14.10
2019-05-29T18:40:08.545Z,13.70
2019-05-29T18:51:45.505Z,13.20
2019-05-29T18:54:18.190Z,13.10
2019-05-29T18:57:13.634Z,13.00
2019-05-29T18:59:49.635Z,12.90
2019-05-29T19:02:29.772Z,12.80
2019-05-29T19:05:03.730Z,12.70
2019-05-29T19:07:45.707Z,12.60
2019-05-29T19:10:15.853Z,12.40
2019-05-29T19:12:44.872Z,12.20
2019-05-29T19:15:13.883Z,12.10
2019-05-29T19:17:42.441Z,12.00
2019-05-29T19:20:11.715Z,11.90
2019-05-29T19:22:40.632Z,11.80
2019-05-29T19:25:10.799Z,11.80
2019-05-29T19:27:42.067Z,11.70
2019-05-29T19:30:11.405Z,11.50
2019-05-29T19:32:40.342Z,11.40
2019-05-29T19:35:09.845Z,11.30
2019-05-29T19:37:38.422Z,11.20
2019-05-29T19:40:08.685Z,11.10
2019-05-29T19:42:37.620Z,11.00
2019-05-29T19:45:09.889Z,10.90
2019-05-29T19:47:38.426Z,10.80
2019-05-29T19:50:11.075Z,10.70
2019-05-29T19:52:39.427Z,10.60
2019-05-29T19:55:09.568Z,10.50
2019-05-29T19:57:52.569Z,10.40
2019-05-29T20:00:10.347Z,10.30
2019-05-29T20:02:40.013Z,10.20
2019-05-29T20:05:09.380Z,10.10
2019-05-29T20:07:38.260Z,10.00
2019-05-29T20:10:08.379Z,10.00
2019-05-29T20:12:38.118Z,10.00
2019-05-29T20:15:08.218Z,10.00
2019-05-29T20:17:38.343Z,9.90
2019-05-29T20:20:07.666Z,9.90
2019-05-29T20:22:36.946Z,9.70
2019-05-29T20:25:07.415Z,9.70
2019-05-29T20:27:36.518Z,9.70
2019-05-29T20:30:08.461Z,9.70
2019-05-29T20:32:38.551Z,9.60
2019-05-29T20:35:07.966Z,9.60
2019-05-29T20:37:36.807Z,9.50
2019-05-29T20:40:08.722Z,9.50
2019-05-29T20:42:38.355Z,9.40
2019-05-29T20:45:10.480Z,9.40
2019-05-29T20:47:39.956Z,9.30
2019-05-29T20:50:10.622Z,9.30
2019-05-29T20:52:39.611Z,9.20
2019-05-29T20:55:10.120Z,9.10
2019-05-29T20:57:40.020Z,9.10
2019-05-29T21:00:15.087Z,9.00
2019-05-29T21:02:44.039Z,8.90
2019-05-29T21:05:12.831Z,8.80
2019-05-29T21:07:42.607Z,8.80
2019-05-29T21:10:13.095Z,8.90
2019-05-29T21:12:45.370Z,8.80
2019-05-29T21:15:12.921Z,8.70
2019-05-29T21:17:42.159Z,8.70
2019-05-29T21:20:12.380Z,8.70
2019-05-29T21:22:42.511Z,8.70
2019-05-29T21:25:17.673Z,8.70
2019-05-29T21:27:48.705Z,8.70
2019-05-29T21:30:17.589Z,8.70
2019-05-29T21:32:46.468Z,8.60
2019-05-29T21:35:15.441Z,8.60
2019-05-29T21:37:44.435Z,8.50
2019-05-29T21:40:13.567Z,8.50
2019-05-29T21:42:42.848Z,8.40
2019-05-29T21:45:12.156Z,8.30
2019-05-29T21:47:41.056Z,8.30
2019-05-29T21:50:10.691Z,8.20
2019-05-29T21:52:39.565Z,8.10
2019-05-29T21:55:08.756Z,8.00
2019-05-29T21:57:37.847Z,7.90
2019-05-29T22:00:12.090Z,7.90
2019-05-29T22:02:42.171Z,7.90
2019-05-29T22:05:11.698Z,7.80
2019-05-29T22:07:40.803Z,7.80
2019-05-29T22:10:10.160Z,7.80
2019-05-29T22:12:39.043Z,7.80
2019-05-29T22:15:08.162Z,7.80
2019-05-29T22:17:37.076Z,7.90
2019-05-29T22:20:08.915Z,7.70
2019-05-29T22:22:37.824Z,7.60
2019-05-29T22:25:07.930Z,7.60
2019-05-29T22:27:37.780Z,7.50
2019-05-29T22:30:08.038Z,7.50
2019-05-29T22:32:37.032Z,7.50
2019-05-29T22:35:07.117Z,7.40
2019-05-29T22:37:35.941Z,7.40
2019-05-29T22:40:06.467Z,7.30
2019-05-29T22:42:35.428Z,7.30
2019-05-29T22:45:05.666Z,7.40
2019-05-29T22:47:34.481Z,7.40
2019-05-29T22:50:04.388Z,7.30
2019-05-29T22:52:33.293Z,7.20
2019-05-29T22:55:02.398Z,7.20
2019-05-29T22:57:31.230Z,7.20
2019-05-29T23:00:00.185Z,7.20
2019-05-29T23:02:29.074Z,7.20
2019-05-29T23:04:58.479Z,7.10
2019-05-29T23:07:27.517Z,7.20
2019-05-29T23:09:56.393Z,7.10
2019-05-29T23:12:25.248Z,7.10
2019-05-29T23:14:54.437Z,7.00
2019-05-29T23:17:23.331Z,7.00
2019-05-29T23:19:52.470Z,6.90
2019-05-29T23:22:24.389Z,6.90
2019-05-29T23:24:52.611Z,6.80
2019-05-29T23:27:21.204Z,6.70
2019-05-29T23:29:50.114Z,6.80
2019-05-29T23:32:18.897Z,6.90
2019-05-29T23:34:48.532Z,7.00
2019-05-29T23:37:17.520Z,7.00
2019-05-29T23:39:46.406Z,6.90
2019-05-29T23:42:15.291Z,6.80
2019-05-29T23:44:43.898Z,6.90
2019-05-29T23:47:12.691Z,6.90
2019-05-29T23:49:41.577Z,6.90
2019-05-29T23:52:10.544Z,6.80
2019-05-29T23:54:39.441Z,6.80
2019-05-29T23:57:08.293Z,6.70
2019-05-29T23:59:37.187Z,6.70
